Time;durP1;ratioP1;P1;durP2;ratioP2;P2;SDS_P1;SDS_P2;PMS_P1;PMS_P2;Temp;Humidity;BMP_temperature;BMP_pressure;BME280_temperature;BME280_humidity;BME280_pressure;Samples;Min_cycle;Max_cycle;Signal;HPM_P1;HPM_P2
2021/10/25 00:00:37;;;;;;;22.75;11.88;;;;;;;;;;5071609;28;20037;-82
2021/10/25 00:03:04;;;;;;;21.73;11.70;;;;;;;;;;5074778;28;20048;-82
2021/10/25 00:05:30;;;;;;;18.23;11.18;;;;;;;;;;5081862;28;20140;-81
2021/10/25 00:07:57;;;;;;;19.45;10.63;;;;;;;;;;5083081;28;20040;-81
2021/10/25 00:10:24;;;;;;;17.92;11.27;;;;;;;;;;5083576;28;20107;-80
2021/10/25 00:12:51;;;;;;;21.27;11.10;;;;;;;;;;5083358;28;20066;-81
2021/10/25 00:15:18;;;;;;;18.08;10.73;;;;;;;;;;5083592;28;20045;-81
2021/10/25 00:17:46;;;;;;;21.52;11.93;;;;;;;;;;5082488;28;20048;-80
2021/10/25 00:20:14;;;;;;;22.25;12.48;;;;;;;;;;5076824;28;20083;-81
2021/10/25 00:22:41;;;;;;;23.83;11.23;;;;;;;;;;5073766;28;20483;-82
2021/10/25 00:25:09;;;;;;;25.65;12.35;;;;;;;;;;5077761;28;20078;-82
2021/10/25 00:27:36;;;;;;;23.45;13.48;;;;;;;;;;5079159;28;20098;-81
2021/10/25 00:30:03;;;;;;;28.95;12.30;;;;;;;;;;5093436;28;20040;-82
2021/10/25 00:32:30;;;;;;;28.65;13.25;;;;;;;;;;5096267;28;20046;-81
2021/10/25 00:34:58;;;;;;;23.08;11.43;;;;;;;;;;5080371;28;20053;-81
2021/10/25 00:37:24;;;;;;;19.20;11.57;;;;;;;;;;5076153;28;20048;-82
2021/10/25 00:39:51;;;;;;;20.80;10.65;;;;;;;;;;5075970;28;20078;-82
2021/10/25 00:42:18;;;;;;;14.80;9.52;;;;;;;;;;5074888;28;20106;-82
2021/10/25 00:44:45;;;;;;;15.77;9.23;;;;;;;;;;5074880;28;20070;-81
2021/10/25 00:47:11;;;;;;;16.58;9.15;;;;;;;;;;5074934;28;20053;-82
2021/10/25 00:49:38;;;;;;;15.65;8.38;;;;;;;;;;5074178;28;20103;-83
2021/10/25 00:52:06;;;;;;;14.02;9.27;;;;;;;;;;5074870;28;20067;-82
2021/10/25 00:54:36;;;;;;;14.00;8.10;;;;;;;;;;5078059;28;20049;-81
2021/10/25 00:57:04;;;;;;;15.73;9.05;;;;;;;;;;5074781;28;20127;-82
2021/10/25 00:59:31;;;;;;;15.57;8.55;;;;;;;;;;5075001;28;20083;-82
2021/10/25 01:01:58;;;;;;;14.43;7.75;;;;;;;;;;5074788;28;20116;-82
2021/10/25 01:04:25;;;;;;;12.77;7.35;;;;;;;;;;5076651;28;20176;-81
2021/10/25 01:06:52;;;;;;;14.65;7.32;;;;;;;;;;5076903;28;20135;-82
2021/10/25 01:09:21;;;;;;;13.93;7.55;;;;;;;;;;5077153;28;20491;-81
2021/10/25 01:11:49;;;;;;;13.40;7.28;;;;;;;;;;5074569;28;20060;-81
2021/10/25 01:14:17;;;;;;;11.93;7.28;;;;;;;;;;5075047;28;20843;-82
2021/10/25 01:16:44;;;;;;;13.00;7.38;;;;;;;;;;5074222;28;20098;-81
2021/10/25 01:19:11;;;;;;;15.85;7.43;;;;;;;;;;5074506;28;20052;-82
2021/10/25 01:21:39;;;;;;;12.38;7.47;;;;;;;;;;5074846;28;20083;-80
2021/10/25 01:24:06;;;;;;;17.38;9.02;;;;;;;;;;5073503;28;20086;-81
2021/10/25 01:26:33;;;;;;;13.75;7.78;;;;;;;;;;5074008;28;20102;-82
2021/10/25 01:28:59;;;;;;;12.98;7.68;;;;;;;;;;5074277;28;20173;-81
2021/10/25 01:31:26;;;;;;;13.75;7.82;;;;;;;;;;5073949;28;20048;-81
2021/10/25 01:33:53;;;;;;;12.40;7.05;;;;;;;;;;5073777;28;20048;-82
2021/10/25 01:36:21;;;;;;;16.48;9.25;;;;;;;;;;5072415;28;20064;-81
2021/10/25 01:38:50;;;;;;;20.88;10.35;;;;;;;;;;5073488;28;20053;-80
2021/10/25 01:41:17;;;;;;;19.10;10.48;;;;;;;;;;5074489;28;20134;-81
2021/10/25 01:43:44;;;;;;;21.52;10.18;;;;;;;;;;5074413;28;20526;-82
2021/10/25 01:46:11;;;;;;;18.58;10.77;;;;;;;;;;5074544;28;20135;-82
2021/10/25 01:48:37;;;;;;;16.10;9.43;;;;;;;;;;5075787;28;20044;-81
2021/10/25 01:51:05;;;;;;;15.57;8.68;;;;;;;;;;5083839;28;20051;-81
2021/10/25 01:53:34;;;;;;;13.52;8.25;;;;;;;;;;5081994;28;20128;-81
2021/10/25 01:56:02;;;;;;;12.60;7.90;;;;;;;;;;5072554;28;20376;-81
2021/10/25 01:58:29;;;;;;;17.52;8.88;;;;;;;;;;5075045;28;20434;-82
2021/10/25 02:00:56;;;;;;;14.45;7.45;;;;;;;;;;5076001;28;20041;-82
2021/10/25 02:03:24;;;;;;;15.35;8.57;;;;;;;;;;5076417;28;20048;-82
2021/10/25 02:05:50;;;;;;;15.02;8.43;;;;;;;;;;5075894;28;20048;-82
2021/10/25 02:08:17;;;;;;;11.77;7.13;;;;;;;;;;5075721;28;20052;-83
2021/10/25 02:10:44;;;;;;;14.13;7.57;;;;;;;;;;5075834;28;20139;-82
2021/10/25 02:13:16;;;;;;;11.27;6.35;;;;;;;;;;5074786;28;20122;-82
2021/10/25 02:15:44;;;;;;;13.63;7.38;;;;;;;;;;5074486;28;20100;-81
2021/10/25 02:18:12;;;;;;;13.85;7.28;;;;;;;;;;5074502;28;20051;-81
2021/10/25 02:20:39;;;;;;;12.63;7.00;;;;;;;;;;5078376;28;20048;-83
2021/10/25 02:23:06;;;;;;;15.85;8.23;;;;;;;;;;5093391;28;20067;-83
2021/10/25 02:25:34;;;;;;;11.40;6.38;;;;;;;;;;5093344;28;20071;-82
2021/10/25 02:28:00;;;;;;;13.85;6.90;;;;;;;;;;5091908;28;20041;-81
2021/10/25 02:30:29;;;;;;;14.10;7.78;;;;;;;;;;5092341;28;20040;-81
2021/10/25 02:32:56;;;;;;;13.40;7.45;;;;;;;;;;5083212;28;20041;-82
2021/10/25 02:35:23;;;;;;;11.32;7.03;;;;;;;;;;5073945;28;20036;-81
2021/10/25 02:37:50;;;;;;;12.93;6.80;;;;;;;;;;5074009;28;20067;-81
2021/10/25 02:40:17;;;;;;;14.90;7.65;;;;;;;;;;5073344;28;20068;-82
2021/10/25 02:42:44;;;;;;;12.90;6.93;;;;;;;;;;5072524;28;20044;-80
2021/10/25 02:45:11;;;;;;;15.80;7.72;;;;;;;;;;5079408;28;20048;-81
2021/10/25 02:47:39;;;;;;;15.35;7.60;;;;;;;;;;5082788;28;20055;-80
2021/10/25 02:50:06;;;;;;;21.88;8.32;;;;;;;;;;5088825;28;20036;-80
2021/10/25 02:52:33;;;;;;;13.88;8.18;;;;;;;;;;5088896;28;20048;-79
2021/10/25 02:55:00;;;;;;;13.63;7.47;;;;;;;;;;5087299;28;20040;-80
2021/10/25 02:57:27;;;;;;;15.73;7.45;;;;;;;;;;5087426;28;20124;-80
2021/10/25 02:59:54;;;;;;;13.95;7.82;;;;;;;;;;5092536;28;20041;-80
2021/10/25 03:02:20;;;;;;;13.45;7.93;;;;;;;;;;5094276;28;20055;-80
2021/10/25 03:04:49;;;;;;;15.70;9.15;;;;;;;;;;5085397;28;20074;-81
2021/10/25 03:07:16;;;;;;;14.40;8.35;;;;;;;;;;5079935;28;20044;-81
2021/10/25 03:09:43;;;;;;;18.35;9.32;;;;;;;;;;5077659;28;20045;-80
2021/10/25 03:12:09;;;;;;;15.82;9.50;;;;;;;;;;5071153;28;20411;-81
2021/10/25 03:14:36;;;;;;;19.67;10.05;;;;;;;;;;5070600;28;20044;-80
2021/10/25 03:17:03;;;;;;;18.35;10.18;;;;;;;;;;5071914;28;20110;-80
2021/10/25 03:19:30;;;;;;;17.33;9.05;;;;;;;;;;5071703;28;20461;-80
2021/10/25 03:36:21;;;;;;;15.13;8.77;;;;;;;;;;4823827;29;20069;-80
2021/10/25 03:53:47;;;;;;;12.25;7.55;;;;;;;;;;5058914;22;20079;-63
2021/10/25 03:56:18;;;;;;;12.23;7.32;;;;;;;;;;5051520;28;20081;-63
2021/10/25 04:13:22;;;;;;;13.02;7.13;;;;;;;;;;5055682;28;20075;-64
2021/10/25 04:26:53;;;;;;;15.20;7.47;;;;;;;;;;5055303;28;20111;-64
2021/10/25 04:29:21;;;;;;;16.65;7.55;;;;;;;;;;5055083;28;20071;-64
2021/10/25 04:31:48;;;;;;;14.98;7.38;;;;;;;;;;5054984;28;20068;-64
2021/10/25 04:34:15;;;;;;;12.98;7.35;;;;;;;;;;5055476;28;20053;-64
2021/10/25 04:36:42;;;;;;;20.30;8.18;;;;;;;;;;5054967;28;20049;-64
2021/10/25 04:39:10;;;;;;;15.93;8.30;;;;;;;;;;5055127;28;20056;-64
2021/10/25 04:41:37;;;;;;;18.40;9.55;;;;;;;;;;5054997;28;20524;-64
2021/10/25 04:44:06;;;;;;;15.82;8.70;;;;;;;;;;5054992;28;20048;-65
2021/10/25 04:46:33;;;;;;;19.75;10.25;;;;;;;;;;5055106;28;20045;-64
2021/10/25 04:49:00;;;;;;;19.50;9.43;;;;;;;;;;5054760;28;20052;-64
2021/10/25 04:51:28;;;;;;;19.05;9.98;;;;;;;;;;5054417;28;20048;-63
2021/10/25 04:53:55;;;;;;;16.27;8.40;;;;;;;;;;5054804;28;20089;-64
2021/10/25 04:56:22;;;;;;;16.55;9.27;;;;;;;;;;5054748;28;20075;-64
2021/10/25 04:58:49;;;;;;;18.48;9.27;;;;;;;;;;5054709;28;20047;-62
2021/10/25 05:01:18;;;;;;;15.93;8.75;;;;;;;;;;5054570;28;20052;-64
2021/10/25 05:03:44;;;;;;;17.45;9.02;;;;;;;;;;5054728;28;20040;-64
2021/10/25 05:06:17;;;;;;;17.90;9.38;;;;;;;;;;5054363;28;20063;-62
2021/10/25 05:08:44;;;;;;;15.75;8.77;;;;;;;;;;5054420;28;20148;-64
2021/10/25 05:11:11;;;;;;;15.60;9.00;;;;;;;;;;5054650;28;20053;-64
2021/10/25 05:13:38;;;;;;;14.60;8.52;;;;;;;;;;5054612;28;20048;-63
2021/10/25 05:16:06;;;;;;;17.13;8.15;;;;;;;;;;5054910;28;20530;-64
2021/10/25 05:18:34;;;;;;;14.95;8.77;;;;;;;;;;5054396;28;20041;-64
2021/10/25 05:21:01;;;;;;;17.67;9.20;;;;;;;;;;5054260;28;20053;-64
2021/10/25 05:23:28;;;;;;;22.25;8.13;;;;;;;;;;5053982;28;20147;-64
2021/10/25 05:25:55;;;;;;;15.85;8.07;;;;;;;;;;5054247;28;20041;-64
2021/10/25 05:28:22;;;;;;;15.05;8.63;;;;;;;;;;5054024;28;20045;-63
2021/10/25 05:30:49;;;;;;;14.35;8.48;;;;;;;;;;5054069;28;20053;-64
2021/10/25 05:33:16;;;;;;;18.65;9.95;;;;;;;;;;5053983;28;20136;-64
2021/10/25 05:35:44;;;;;;;19.27;10.00;;;;;;;;;;5053868;28;20045;-63
2021/10/25 05:38:12;;;;;;;19.25;9.98;;;;;;;;;;5053951;28;20510;-64
2021/10/25 05:40:39;;;;;;;21.92;11.60;;;;;;;;;;5053860;28;20052;-64
2021/10/25 05:43:07;;;;;;;21.50;10.25;;;;;;;;;;5053633;28;20055;-64
2021/10/25 05:45:34;;;;;;;19.20;10.20;;;;;;;;;;5054050;28;20048;-63
2021/10/25 05:48:01;;;;;;;22.42;10.75;;;;;;;;;;5053619;28;20068;-64
2021/10/25 05:50:28;;;;;;;20.80;10.65;;;;;;;;;;5053601;28;20049;-64
2021/10/25 05:52:57;;;;;;;20.48;10.50;;;;;;;;;;5053369;28;20041;-64
2021/10/25 05:55:25;;;;;;;18.00;10.30;;;;;;;;;;5053462;28;20049;-63
2021/10/25 05:57:53;;;;;;;17.52;10.93;;;;;;;;;;5053509;28;20057;-64
2021/10/25 06:00:23;;;;;;;21.40;11.90;;;;;;;;;;5053666;28;20049;-64
2021/10/25 06:02:54;;;;;;;25.02;11.73;;;;;;;;;;5053512;28;20068;-64
2021/10/25 06:05:22;;;;;;;30.63;13.80;;;;;;;;;;5053213;28;20059;-64
2021/10/25 06:07:49;;;;;;;27.95;13.00;;;;;;;;;;5053079;28;20053;-63
2021/10/25 06:10:19;;;;;;;28.02;13.02;;;;;;;;;;5053446;28;20068;-64
2021/10/25 06:12:48;;;;;;;27.73;12.85;;;;;;;;;;5053073;28;20049;-64
2021/10/25 06:15:22;;;;;;;24.98;13.13;;;;;;;;;;5053081;28;20132;-64
2021/10/25 06:17:56;;;;;;;27.88;12.63;;;;;;;;;;5053136;28;20131;-64
2021/10/25 06:20:25;;;;;;;22.15;12.27;;;;;;;;;;5051862;28;20057;-62
2021/10/25 06:22:52;;;;;;;25.00;12.60;;;;;;;;;;5048436;28;20071;-64
2021/10/25 06:25:22;;;;;;;28.00;13.07;;;;;;;;;;5049454;28;20486;-64
2021/10/25 06:27:49;;;;;;;33.42;14.55;;;;;;;;;;5049379;28;20058;-62
2021/10/25 06:30:17;;;;;;;27.08;12.70;;;;;;;;;;5049252;28;20513;-63
2021/10/25 06:32:44;;;;;;;36.10;13.95;;;;;;;;;;5048796;28;20041;-62
2021/10/25 06:35:14;;;;;;;24.63;12.10;;;;;;;;;;5048801;28;20040;-62
2021/10/25 06:37:55;;;;;;;25.05;13.15;;;;;;;;;;5049471;28;20056;-62
2021/10/25 06:40:26;;;;;;;24.75;12.10;;;;;;;;;;5048335;28;20160;-65
2021/10/25 06:42:53;;;;;;;29.85;13.07;;;;;;;;;;5049623;28;20787;-62
2021/10/25 06:45:21;;;;;;;25.08;14.52;;;;;;;;;;5048937;28;20482;-60
2021/10/25 06:47:49;;;;;;;20.45;12.10;;;;;;;;;;5048933;28;20406;-63
2021/10/25 06:50:18;;;;;;;29.77;13.15;;;;;;;;;;5048432;28;20045;-59
2021/10/25 06:52:45;;;;;;;25.05;12.27;;;;;;;;;;5049069;28;20045;-64
2021/10/25 06:55:12;;;;;;;23.17;11.95;;;;;;;;;;5048389;28;20055;-62
2021/10/25 06:57:41;;;;;;;23.17;10.95;;;;;;;;;;5049085;28;20049;-62
2021/10/25 07:00:09;;;;;;;24.08;11.23;;;;;;;;;;5048401;28;20045;-63
2021/10/25 07:02:37;;;;;;;19.38;10.45;;;;;;;;;;5048409;28;20563;-60
2021/10/25 07:05:04;;;;;;;22.67;11.35;;;;;;;;;;5047486;28;20075;-63
2021/10/25 07:07:32;;;;;;;20.75;10.35;;;;;;;;;;5048840;28;20045;-59
2021/10/25 07:09:59;;;;;;;23.70;11.63;;;;;;;;;;5048358;28;20136;-60
2021/10/25 07:12:27;;;;;;;21.88;11.38;;;;;;;;;;5048438;28;20132;-62
2021/10/25 07:14:56;;;;;;;25.95;12.98;;;;;;;;;;5048259;28;20107;-60
2021/10/25 07:17:28;;;;;;;34.55;17.58;;;;;;;;;;5047948;28;20557;-61
2021/10/25 08:07:04;;;;;;;38.95;15.93;;;;;;;;;;5016818;28;20052;-62
2021/10/25 08:09:43;;;;;;;33.72;15.95;;;;;;;;;;5047445;28;20106;-61
2021/10/25 08:12:13;;;;;;;33.35;14.40;;;;;;;;;;5046990;28;20518;-62
2021/10/25 08:14:45;;;;;;;43.83;17.23;;;;;;;;;;5046916;28;20148;-61
2021/10/25 08:17:18;;;;;;;33.33;15.10;;;;;;;;;;5047246;28;20063;-61
2021/10/25 08:19:47;;;;;;;27.35;14.00;;;;;;;;;;5048666;28;20049;-60
2021/10/25 08:22:16;;;;;;;32.25;16.23;;;;;;;;;;5050041;28;20041;-63
2021/10/25 08:24:45;;;;;;;31.65;15.27;;;;;;;;;;5051155;28;20045;-63
2021/10/25 08:27:13;;;;;;;39.28;18.38;;;;;;;;;;5051644;28;20449;-64
2021/10/25 08:29:41;;;;;;;32.03;18.45;;;;;;;;;;5051282;28;20084;-61
2021/10/25 08:32:17;;;;;;;43.85;20.52;;;;;;;;;;5051067;28;20502;-63
2021/10/25 08:35:02;;;;;;;47.22;20.77;;;;;;;;;;5051103;28;20132;-63
2021/10/25 08:40:15;;;;;;;34.05;16.60;;;;;;;;;;5051191;28;20521;-62
2021/10/25 08:42:42;;;;;;;34.35;16.70;;;;;;;;;;5051367;28;20502;-64
2021/10/25 08:45:14;;;;;;;29.38;16.77;;;;;;;;;;5051423;28;20073;-62
2021/10/25 08:47:43;;;;;;;35.55;16.50;;;;;;;;;;5054516;28;20053;-64
2021/10/25 08:50:13;;;;;;;35.42;17.05;;;;;;;;;;5054752;28;20060;-63
2021/10/25 08:52:42;;;;;;;32.83;15.60;;;;;;;;;;5054666;28;20053;-63
2021/10/25 08:55:12;;;;;;;36.28;16.42;;;;;;;;;;5054728;28;20048;-63
2021/10/25 08:57:40;;;;;;;33.43;17.23;;;;;;;;;;5054597;28;20136;-62
2021/10/25 09:00:09;;;;;;;28.08;15.23;;;;;;;;;;5054812;28;20067;-63
2021/10/25 09:02:36;;;;;;;29.83;15.60;;;;;;;;;;5054641;28;20130;-64
2021/10/25 09:05:05;;;;;;;28.85;16.55;;;;;;;;;;5054454;28;20045;-64
2021/10/25 09:07:34;;;;;;;30.40;14.85;;;;;;;;;;5054435;28;20053;-64
2021/10/25 09:10:07;;;;;;;44.22;16.67;;;;;;;;;;5054384;28;20346;-64
2021/10/25 09:12:34;;;;;;;38.08;17.38;;;;;;;;;;5054436;28;20045;-65
2021/10/25 09:15:02;;;;;;;36.17;17.45;;;;;;;;;;5054209;28;20052;-64
2021/10/25 09:17:41;;;;;;;29.23;15.73;;;;;;;;;;5054152;28;20139;-64
2021/10/25 09:20:08;;;;;;;34.90;17.50;;;;;;;;;;5053895;28;20053;-65
2021/10/25 09:22:35;;;;;;;25.33;15.55;;;;;;;;;;5054002;28;20045;-65
2021/10/25 09:25:02;;;;;;;36.25;16.85;;;;;;;;;;5053819;28;20493;-64
2021/10/25 09:27:33;;;;;;;31.88;16.05;;;;;;;;;;5054130;28;20401;-64
2021/10/25 09:30:09;;;;;;;30.92;18.45;;;;;;;;;;5054009;28;20049;-63
2021/10/25 09:32:36;;;;;;;31.33;16.98;;;;;;;;;;5054293;28;20048;-64
2021/10/25 09:35:15;;;;;;;29.25;17.48;;;;;;;;;;5054270;28;20053;-63
2021/10/25 09:37:46;;;;;;;29.77;15.68;;;;;;;;;;5054022;28;20486;-63
2021/10/25 09:40:22;;;;;;;33.90;16.67;;;;;;;;;;5053937;28;20056;-65
2021/10/25 09:43:05;;;;;;;32.72;18.02;;;;;;;;;;5053885;28;20049;-64
2021/10/25 09:51:03;;;;;;;26.40;14.35;;;;;;;;;;5053433;28;20109;-64
2021/10/25 09:53:33;;;;;;;27.33;14.93;;;;;;;;;;5053222;28;20049;-64
2021/10/25 09:56:01;;;;;;;31.13;16.00;;;;;;;;;;5054210;28;20107;-64
2021/10/25 09:58:41;;;;;;;32.13;16.08;;;;;;;;;;5053078;28;20391;-63
2021/10/25 10:01:10;;;;;;;31.35;18.50;;;;;;;;;;5053296;28;20114;-63
2021/10/25 10:03:37;;;;;;;25.80;15.27;;;;;;;;;;5053390;28;20053;-65
2021/10/25 10:06:04;;;;;;;30.40;16.48;;;;;;;;;;5053465;28;20045;-64
2021/10/25 10:08:32;;;;;;;33.75;17.85;;;;;;;;;;5053285;28;20437;-65
2021/10/25 10:10:59;;;;;;;27.73;16.17;;;;;;;;;;5053298;28;20525;-64
2021/10/25 10:13:27;;;;;;;31.83;17.45;;;;;;;;;;5053244;28;20045;-64
2021/10/25 10:15:58;;;;;;;41.30;19.63;;;;;;;;;;5053277;28;20049;-64
2021/10/25 10:18:30;;;;;;;42.05;22.02;;;;;;;;;;5053205;28;20436;-63
2021/10/25 10:21:00;;;;;;;49.53;25.55;;;;;;;;;;5053310;28;20128;-64
2021/10/25 10:23:27;;;;;;;37.90;19.57;;;;;;;;;;5052891;28;20052;-62
2021/10/25 10:25:57;;;;;;;36.03;19.90;;;;;;;;;;5052123;28;20048;-66
2021/10/25 10:28:35;;;;;;;41.20;19.92;;;;;;;;;;5052223;28;20398;-71
2021/10/25 10:31:05;;;;;;;39.20;19.77;;;;;;;;;;5051466;28;20052;-67
2021/10/25 10:33:36;;;;;;;33.10;18.23;;;;;;;;;;5051437;28;20486;-64
2021/10/25 10:36:15;;;;;;;33.03;18.05;;;;;;;;;;5052504;28;20103;-64
2021/10/25 10:38:51;;;;;;;38.85;21.50;;;;;;;;;;5052854;28;20044;-64
2021/10/25 10:41:20;;;;;;;36.35;20.73;;;;;;;;;;5052842;28;20487;-64
2021/10/25 10:44:02;;;;;;;31.73;16.55;;;;;;;;;;5052245;28;20040;-69
2021/10/25 10:46:44;;;;;;;29.02;16.45;;;;;;;;;;5051888;28;20733;-70
2021/10/25 10:49:23;;;;;;;29.45;16.17;;;;;;;;;;5051482;28;20080;-64
2021/10/25 10:52:17;;;;;;;25.80;16.67;;;;;;;;;;5051119;28;20048;-66
2021/10/25 10:54:54;;;;;;;35.75;16.83;;;;;;;;;;5050984;28;20048;-65
2021/10/25 10:57:44;;;;;;;28.70;16.45;;;;;;;;;;5051941;28;20048;-65
2021/10/25 11:00:12;;;;;;;31.33;17.15;;;;;;;;;;5052332;28;20053;-65
2021/10/25 11:02:52;;;;;;;28.48;16.65;;;;;;;;;;5052285;28;20063;-65
2021/10/25 11:05:29;;;;;;;29.88;17.58;;;;;;;;;;5052059;28;20128;-63
2021/10/25 11:08:05;;;;;;;29.67;17.95;;;;;;;;;;5047327;28;20049;-63
2021/10/25 11:10:32;;;;;;;36.97;19.77;;;;;;;;;;5047613;28;20064;-63
2021/10/25 11:13:06;;;;;;;43.92;23.17;;;;;;;;;;5047529;28;20138;-63
2021/10/25 11:15:37;;;;;;;36.58;19.73;;;;;;;;;;5047217;28;20051;-63
2021/10/25 11:18:06;;;;;;;36.45;18.92;;;;;;;;;;5046684;28;20056;-63
2021/10/25 11:20:34;;;;;;;32.17;17.10;;;;;;;;;;5047774;28;20476;-62
2021/10/25 11:23:07;;;;;;;34.58;19.17;;;;;;;;;;5046996;28;20494;-63
2021/10/25 11:25:45;;;;;;;33.63;19.65;;;;;;;;;;5047175;28;20128;-63
2021/10/25 11:28:16;;;;;;;32.83;17.80;;;;;;;;;;5047388;28;20661;-63
2021/10/25 11:30:43;;;;;;;32.45;17.02;;;;;;;;;;5047303;28;21420;-63
2021/10/25 11:33:12;;;;;;;32.72;17.05;;;;;;;;;;5047100;28;20049;-63
2021/10/25 11:35:47;;;;;;;32.38;17.60;;;;;;;;;;5046901;28;20053;-63
2021/10/25 11:38:14;;;;;;;35.55;17.58;;;;;;;;;;5046858;28;20098;-64
2021/10/25 11:40:42;;;;;;;35.28;20.38;;;;;;;;;;5044044;28;21087;-64
2021/10/25 11:43:11;;;;;;;34.35;18.13;;;;;;;;;;5046673;28;20498;-63
2021/10/25 11:45:38;;;;;;;33.55;16.48;;;;;;;;;;5047370;28;20418;-63
2021/10/25 11:48:05;;;;;;;30.42;17.08;;;;;;;;;;5047108;28;20049;-62
2021/10/25 11:50:35;;;;;;;37.05;18.15;;;;;;;;;;5046846;28;20049;-63
2021/10/25 11:53:05;;;;;;;37.83;21.42;;;;;;;;;;5047003;28;20053;-63
2021/10/25 11:55:35;;;;;;;36.30;20.60;;;;;;;;;;5047365;28;20099;-63
2021/10/25 11:58:04;;;;;;;32.38;17.63;;;;;;;;;;5047220;28;20409;-62
2021/10/25 12:00:34;;;;;;;33.10;19.00;;;;;;;;;;5047019;28;20789;-63
2021/10/25 12:03:09;;;;;;;33.25;18.25;;;;;;;;;;5046556;28;20178;-62
2021/10/25 12:05:38;;;;;;;40.20;18.98;;;;;;;;;;5046335;28;20081;-63
2021/10/25 12:08:09;;;;;;;36.78;17.88;;;;;;;;;;5047267;28;20056;-63
2021/10/25 12:10:38;;;;;;;36.00;19.35;;;;;;;;;;5047518;28;20052;-63
2021/10/25 12:13:07;;;;;;;31.15;18.70;;;;;;;;;;5047576;28;20049;-63
2021/10/25 12:15:37;;;;;;;30.58;16.80;;;;;;;;;;5045977;28;20049;-63
2021/10/25 12:18:06;;;;;;;30.98;17.10;;;;;;;;;;5047535;28;20423;-63
2021/10/25 12:20:35;;;;;;;29.85;17.70;;;;;;;;;;5045203;28;20041;-64
2021/10/25 12:23:05;;;;;;;31.40;16.25;;;;;;;;;;5050709;28;20052;-63
2021/10/25 12:25:33;;;;;;;29.70;17.98;;;;;;;;;;5050834;28;20468;-62
2021/10/25 12:28:01;;;;;;;38.67;18.02;;;;;;;;;;5050811;28;20052;-63
2021/10/25 12:30:29;;;;;;;27.83;16.65;;;;;;;;;;5050897;28;20453;-63
2021/10/25 12:32:58;;;;;;;28.30;16.23;;;;;;;;;;5050665;28;20057;-63
2021/10/25 12:35:39;;;;;;;55.55;32.47;;;;;;;;;;5050833;28;20049;-63
2021/10/25 12:38:11;;;;;;;40.35;21.40;;;;;;;;;;5050960;28;20051;-63
2021/10/25 12:40:41;;;;;;;40.55;21.55;;;;;;;;;;5050121;28;20124;-63
2021/10/25 12:43:09;;;;;;;65.80;33.67;;;;;;;;;;5050900;28;20053;-63
2021/10/25 12:45:41;;;;;;;42.20;21.88;;;;;;;;;;5050437;28;20064;-63
2021/10/25 12:48:10;;;;;;;29.88;15.25;;;;;;;;;;5050718;28;20406;-64
2021/10/25 12:50:39;;;;;;;31.52;17.08;;;;;;;;;;5050305;28;20506;-63
2021/10/25 12:53:09;;;;;;;29.30;16.65;;;;;;;;;;5049962;28;20044;-63
2021/10/25 12:55:37;;;;;;;35.92;19.02;;;;;;;;;;5050448;28;20056;-63
2021/10/25 12:58:09;;;;;;;35.28;18.45;;;;;;;;;;5049750;28;20297;-63
2021/10/25 13:00:36;;;;;;;38.75;20.88;;;;;;;;;;5050817;28;20045;-63
2021/10/25 13:03:09;;;;;;;39.25;19.38;;;;;;;;;;5049944;28;20150;-63
2021/10/25 13:05:37;;;;;;;33.97;18.80;;;;;;;;;;5049066;28;20044;-63
2021/10/25 13:08:06;;;;;;;31.80;17.15;;;;;;;;;;5050211;28;20063;-63
2021/10/25 13:10:36;;;;;;;30.63;18.48;;;;;;;;;;5049637;28;20063;-62
2021/10/25 13:13:06;;;;;;;38.13;21.58;;;;;;;;;;5049399;28;20087;-62
2021/10/25 13:15:34;;;;;;;29.63;16.87;;;;;;;;;;5049131;28;20050;-66
2021/10/25 13:18:03;;;;;;;28.60;17.05;;;;;;;;;;5050412;28;20124;-64
2021/10/25 13:20:32;;;;;;;27.20;15.32;;;;;;;;;;5050793;28;20052;-65
2021/10/25 13:23:02;;;;;;;28.83;15.43;;;;;;;;;;5051935;28;20044;-66
2021/10/25 13:25:30;;;;;;;32.20;16.65;;;;;;;;;;5049567;28;20131;-71
2021/10/25 13:27:59;;;;;;;26.17;14.98;;;;;;;;;;5052685;28;20272;-66
2021/10/25 13:30:28;;;;;;;32.60;16.88;;;;;;;;;;5055436;28;20093;-65
2021/10/25 13:32:56;;;;;;;29.40;15.80;;;;;;;;;;5064288;28;20045;-65
2021/10/25 13:35:24;;;;;;;25.80;14.63;;;;;;;;;;5053645;28;20060;-65
2021/10/25 13:37:54;;;;;;;32.10;16.10;;;;;;;;;;5054353;28;20056;-65
2021/10/25 13:40:23;;;;;;;27.52;16.13;;;;;;;;;;5054054;28;20053;-65
2021/10/25 13:42:51;;;;;;;32.25;17.33;;;;;;;;;;5054271;28;20363;-65
2021/10/25 13:45:21;;;;;;;35.80;18.45;;;;;;;;;;5053489;28;20114;-64
2021/10/25 13:47:49;;;;;;;35.15;17.90;;;;;;;;;;5053549;28;20045;-66
2021/10/25 13:50:17;;;;;;;26.52;16.67;;;;;;;;;;5053774;28;20499;-65
2021/10/25 13:52:45;;;;;;;26.77;16.10;;;;;;;;;;5053398;28;20635;-64
2021/10/25 13:55:12;;;;;;;26.33;15.20;;;;;;;;;;5053537;28;20060;-66
2021/10/25 13:57:40;;;;;;;22.48;14.73;;;;;;;;;;5053654;28;20053;-66
2021/10/25 14:00:10;;;;;;;29.02;16.77;;;;;;;;;;5053936;28;20092;-64
2021/10/25 14:02:40;;;;;;;32.15;16.10;;;;;;;;;;5053546;28;20087;-63
2021/10/25 14:05:10;;;;;;;24.70;14.48;;;;;;;;;;5053820;28;20114;-64
2021/10/25 14:07:37;;;;;;;29.05;14.55;;;;;;;;;;5053695;28;20060;-65
2021/10/25 14:10:09;;;;;;;28.48;16.23;;;;;;;;;;5053337;28;20045;-66
2021/10/25 14:12:37;;;;;;;26.85;14.82;;;;;;;;;;5053695;28;20049;-65
2021/10/25 14:15:17;;;;;;;30.15;15.20;;;;;;;;;;5053607;28;20579;-65
2021/10/25 14:17:45;;;;;;;24.05;13.88;;;;;;;;;;5053290;28;20045;-64
2021/10/25 14:20:14;;;;;;;28.17;14.13;;;;;;;;;;5053139;28;20106;-64
2021/10/25 14:22:41;;;;;;;25.48;14.00;;;;;;;;;;5052872;28;20055;-64
2021/10/25 14:25:09;;;;;;;28.40;15.23;;;;;;;;;;5053167;28;20099;-65
2021/10/25 14:27:36;;;;;;;32.65;18.00;;;;;;;;;;5052783;28;20045;-64
2021/10/25 14:30:05;;;;;;;42.90;26.25;;;;;;;;;;5046569;28;20048;-64
2021/10/25 14:32:32;;;;;;;35.70;19.80;;;;;;;;;;5052713;28;20060;-64
2021/10/25 14:35:02;;;;;;;34.17;18.92;;;;;;;;;;5052656;28;20087;-65
2021/10/25 14:37:31;;;;;;;26.48;16.17;;;;;;;;;;5053120;28;20543;-65
2021/10/25 14:40:02;;;;;;;35.60;19.60;;;;;;;;;;5052366;28;20049;-64
2021/10/25 14:42:30;;;;;;;36.83;17.85;;;;;;;;;;5053091;28;20405;-65
2021/10/25 14:45:03;;;;;;;31.08;16.27;;;;;;;;;;5052789;28;20057;-65
2021/10/25 14:55:44;;;;;;;27.80;14.15;;;;;;;;;;5053044;28;20064;-65
2021/10/25 14:58:14;;;;;;;29.60;15.35;;;;;;;;;;5053035;28;20068;-65
2021/10/25 15:00:42;;;;;;;28.25;14.93;;;;;;;;;;5051986;28;20103;-66
2021/10/25 15:03:09;;;;;;;23.02;13.07;;;;;;;;;;5052200;28;20053;-65
2021/10/25 15:05:37;;;;;;;24.58;13.98;;;;;;;;;;5052172;28;20044;-64
2021/10/25 15:08:05;;;;;;;27.73;14.63;;;;;;;;;;5052309;28;20049;-65
2021/10/25 15:10:32;;;;;;;26.10;13.90;;;;;;;;;;5052364;28;20464;-67
2021/10/25 15:13:00;;;;;;;24.65;13.35;;;;;;;;;;5051709;28;20041;-68
2021/10/25 15:15:27;;;;;;;23.58;13.40;;;;;;;;;;5068100;28;20056;-63
2021/10/25 15:17:54;;;;;;;23.60;14.90;;;;;;;;;;5072571;28;20517;-64
2021/10/25 15:20:22;;;;;;;26.85;15.43;;;;;;;;;;5072075;28;20044;-64
2021/10/25 15:22:52;;;;;;;30.13;15.57;;;;;;;;;;5054534;28;20052;-65
2021/10/25 15:25:21;;;;;;;26.50;15.38;;;;;;;;;;5072570;28;20083;-67
2021/10/25 15:27:50;;;;;;;27.67;15.20;;;;;;;;;;5072006;28;20490;-63
2021/10/25 15:30:17;;;;;;;27.15;14.95;;;;;;;;;;5055481;28;20140;-65
2021/10/25 15:32:44;;;;;;;31.25;16.00;;;;;;;;;;5061595;22;20072;-82
2021/10/25 15:35:11;;;;;;;31.38;16.02;;;;;;;;;;5029673;28;20107;-80
2021/10/25 15:37:39;;;;;;;27.20;16.70;;;;;;;;;;5028169;28;20045;-81
2021/10/25 15:40:09;;;;;;;31.88;17.92;;;;;;;;;;5038967;28;20049;-81
2021/10/25 15:42:36;;;;;;;;;;;;;;;;;;5039132;28;20073;-81
2021/10/25 15:45:05;;;;;;;37.60;17.27;;;;;;;;;;5029212;28;19928;-80
2021/10/25 15:47:31;;;;;;;34.72;18.17;;;;;;;;;;5029553;28;20046;-81
2021/10/25 15:50:00;;;;;;;31.85;17.88;;;;;;;;;;5028325;28;20049;-82
2021/10/25 15:52:28;;;;;;;32.90;18.27;;;;;;;;;;5025447;28;20050;-79
2021/10/25 15:54:55;;;;;;;30.52;16.70;;;;;;;;;;5023574;28;20045;-81
2021/10/25 15:57:25;;;;;;;30.80;17.88;;;;;;;;;;5025025;28;20128;-81
2021/10/25 15:59:52;;;;;;;46.35;26.05;;;;;;;;;;5026245;28;20049;-81
2021/10/25 16:02:19;;;;;;;47.53;26.77;;;;;;;;;;5027966;28;20076;-81
2021/10/25 16:04:49;;;;;;;47.92;28.63;;;;;;;;;;5029832;28;21253;-80
2021/10/25 16:07:17;;;;;;;61.03;32.35;;;;;;;;;;5029804;28;20119;-81
2021/10/25 16:09:47;;;;;;;54.78;30.55;;;;;;;;;;5030651;28;20540;-81
2021/10/25 16:12:16;;;;;;;41.25;22.33;;;;;;;;;;5027285;28;20160;-81
2021/10/25 16:14:46;;;;;;;32.05;18.88;;;;;;;;;;5027600;28;20111;-82
2021/10/25 16:17:14;;;;;;;33.88;18.75;;;;;;;;;;5027599;28;20064;-79
2021/10/25 16:19:43;;;;;;;34.17;17.70;;;;;;;;;;5027934;28;20046;-80
2021/10/25 16:22:10;;;;;;;32.22;16.83;;;;;;;;;;5026941;28;20725;-80
2021/10/25 16:24:47;;;;;;;33.85;19.00;;;;;;;;;;5024473;28;20045;-82
2021/10/25 16:27:18;;;;;;;33.22;18.98;;;;;;;;;;5027529;28;20045;-80
2021/10/25 16:30:12;;;;;;;;;;;;;;;;;;5030100;28;20141;-81